Aérodrome :
LOGIN :

S'inscrire | Disclaimer

   EN    FR    IT 

 










Légende :    VFR   VFR Marginal   IFR   IFR Intensif   IFR Très Intensif
Visi : 
Plafond : 
>= 8 km
>= 3000ft
5 à 8 km
1000 à 3000 ft
1500m à 5 km
500 à 1000 ft
800 à 1500m
200 à 500 ft
< 800m
< 200 ft
Symboles :   Orages  Brouillard  Fortes neiges  Fortes précipitations  Vent > 20 kt
SIGMETs :   Divers  Orages  Givrage  Turbulence  Onde Orograph.  Cendres Volcan.






- Altitude de l'aérodrome : 72 ft
- Code IATA : UDE


EHVK - Volkel Airbase

DERNIER METAR :
  • 240126Z AUTO VRB02KT 1700 BR OVC001 02/02 Q1025 RED

METARs EXPIRÉS :
  • 240055Z AUTO VRB03KT 2000 BR OVC002 02/01 Q1025 AMB
  • 240037Z AUTO 17003KT 120V220 2300 BR OVC002 02/01 Q1025 AMB
  • 240034Z AUTO 16003KT 120V220 2400 BR OVC003 02/01 Q1025 YLO
  • 240025Z AUTO VRB02KT 2500 BR OVC003 02/01 Q1026 YLO
  • 232355Z AUTO 13003KT 090V190 2600 BR OVC003 02/02 Q1026 YLO
  • 232325Z AUTO 15006KT 120V190 3100 BR OVC004 02/01 Q1026 YLO
  • 232300Z AUTO 13004KT 110V180 3600 BR OVC004 02/02 Q1026 YLO
  • 232255Z AUTO 14005KT 3800 BR OVC005 02/02 Q1026 YLO

TAF COR TAF EHVK
Valide du 23 à 22h jusqu'au 24 à 10h UTC


232151Z 2322/2410 VRB03KT 4000 BR BKN005
TEMPO 2323/2410 1500 BKN002
PROB30 2402/2410 0800 FG FZFG VV001



MET'MAP, la Météo Aéronautique d'un coup d'oeil ! - Copyright ORBIFLY Décembre 2007 - Disclaimer

ORBIFLY MET'MAP TEAM :

Programmation & Développement : Alexandra Zaïnal
Sur une idée originale de : Baudouin d'Aumeries
Assistance à la programmation : Marc-Olivier Méhu
Soutien technique & logistique : Manuel Goepfert

Contact : metmap@orbifly.com




SOURCES & CREDITS :

   NOAA